Time;durP1;ratioP1;P1;durP2;ratioP2;P2;SDS_P1;SDS_P2;PMS_P1;PMS_P2;Temp;Humidity;BMP_temperature;BMP_pressure;BME280_temperature;BME280_humidity;BME280_pressure;Samples;Min_cycle;Max_cycle;Signal;HPM_P1;HPM_P2
2022/10/12 00:00:58;;;;;;;37.00;24.10;;;;;;;13.66;100.00;101110.38;5028855;28;20033;-64
2022/10/12 00:03:23;;;;;;;32.63;25.25;;;;;;;13.71;100.00;101117.06;5025718;28;20029;-63
2022/10/12 00:06:01;;;;;;;35.28;24.40;;;;;;;13.68;100.00;101127.28;5024174;28;20041;-64
2022/10/12 00:08:26;;;;;;;31.42;24.13;;;;;;;13.64;100.00;101117.75;5031433;28;20034;-64
2022/10/12 00:10:52;;;;;;;33.78;24.13;;;;;;;13.66;100.00;101129.25;5032379;28;20048;-64
2022/10/12 00:13:18;;;;;;;34.80;24.52;;;;;;;13.63;100.00;101122.31;5032826;28;20029;-63
2022/10/12 00:15:43;;;;;;;33.33;24.67;;;;;;;13.64;100.00;101126.69;5032412;28;20472;-64
2022/10/12 00:18:09;;;;;;;31.63;23.85;;;;;;;13.64;100.00;101126.69;5032673;28;20029;-63
2022/10/12 00:20:34;;;;;;;33.85;24.88;;;;;;;13.58;100.00;101118.31;5032363;28;20029;-64
2022/10/12 00:23:00;;;;;;;30.45;25.02;;;;;;;13.64;100.00;101132.09;5031940;28;20136;-64
2022/10/12 00:25:26;;;;;;;34.47;25.90;;;;;;;13.72;100.00;101131.41;5031573;28;20033;-63
2022/10/12 00:27:51;;;;;;;30.95;24.33;;;;;;;13.73;100.00;101128.59;5031628;28;20124;-64
2022/10/12 00:30:17;;;;;;;31.10;25.65;;;;;;;13.65;100.00;101103.28;5032299;28;20041;-64
2022/10/12 00:32:42;;;;;;;29.67;25.10;;;;;;;13.76;100.00;101118.53;5032250;28;21117;-64
2022/10/12 00:35:08;;;;;;;29.45;24.40;;;;;;;13.81;100.00;101127.06;5030791;28;20033;-63
2022/10/12 00:37:33;;;;;;;33.17;24.90;;;;;;;13.73;100.00;101117.81;5031825;28;20123;-63
2022/10/12 00:39:59;;;;;;;34.58;26.58;;;;;;;13.70;100.00;101104.59;5032427;28;20084;-63
2022/10/12 00:42:24;;;;;;;35.05;26.55;;;;;;;13.89;100.00;101135.34;5032212;28;20095;-64
2022/10/12 00:44:51;;;;;;;40.92;26.60;;;;;;;13.88;100.00;101120.97;5032262;28;20033;-63
2022/10/12 00:47:35;;;;;;;36.35;25.75;;;;;;;13.92;100.00;101121.56;5032546;28;20061;-63
2022/10/12 00:50:19;;;;;;;;;;;;;;;13.91;100.00;101119.84;5032109;28;20030;-63
2022/10/12 00:52:57;;;;;;;31.67;24.38;;;;;;;13.93;100.00;101124.09;5031921;28;19963;-63
2022/10/12 00:55:26;;;;;;;33.75;24.83;;;;;;;13.95;100.00;101127.53;5030716;28;20365;-63
2022/10/12 00:57:54;;;;;;;34.70;25.48;;;;;;;13.96;100.00;101131.09;5031857;28;20425;-63
2022/10/12 01:00:21;;;;;;;30.00;25.13;;;;;;;13.97;100.00;101127.41;5032071;28;20459;-63
2022/10/12 01:02:49;;;;;;;31.50;25.00;;;;;;;13.89;100.00;101111.06;5030150;28;20040;-63
2022/10/12 01:05:16;;;;;;;29.40;24.90;;;;;;;13.93;100.00;101112.50;5031235;28;20072;-63
2022/10/12 01:07:42;;;;;;;31.60;24.98;;;;;;;13.91;100.00;101106.38;5031833;28;20034;-63
2022/10/12 01:10:08;;;;;;;32.10;24.90;;;;;;;14.04;100.00;101128.56;5031214;28;20041;-63
2022/10/12 01:12:35;;;;;;;31.83;26.92;;;;;;;13.99;100.00;101109.25;5031411;28;20102;-63
2022/10/12 01:15:01;;;;;;;31.45;24.60;;;;;;;14.12;100.00;101126.88;5031283;28;20044;-63
2022/10/12 01:17:47;;;;;;;33.67;25.35;;;;;;;14.12;100.00;101123.34;5031256;28;20033;-63
2022/10/12 01:20:15;;;;;;;33.50;24.88;;;;;;;14.19;100.00;101127.19;5031112;28;20053;-63
2022/10/12 01:22:55;;;;;;;32.75;25.98;;;;;;;14.21;100.00;101128.75;5030961;28;20504;-63
2022/10/12 01:25:57;;;;;;;33.97;24.42;;;;;;;14.22;100.00;101132.31;5031066;28;20121;-63
2022/10/12 01:28:44;;;;;;;37.90;25.30;;;;;;;14.21;100.00;101139.53;5031292;28;20033;-64
2022/10/12 01:31:39;;;;;;;31.73;23.95;;;;;;;14.10;100.00;101117.22;5029868;28;20067;-63
2022/10/12 01:34:32;;;;;;;31.45;24.70;;;;;;;14.14;100.00;101134.84;5030830;28;20029;-63
2022/10/12 01:37:17;;;;;;;31.60;24.42;;;;;;;14.07;100.00;101129.16;5028959;28;20079;-64
2022/10/12 01:39:52;;;;;;;31.35;25.27;;;;;;;14.00;100.00;101128.00;5030093;28;20046;-63
2022/10/12 01:42:39;;;;;;;33.13;25.00;;;;;;;13.95;100.00;101141.03;5028799;28;20032;-64
2022/10/12 01:45:14;;;;;;;32.03;25.60;;;;;;;13.88;100.00;101134.47;5030449;28;20033;-64
2022/10/12 01:47:41;;;;;;;35.75;24.83;;;;;;;13.81;100.00;101135.16;5030202;28;20506;-63
2022/10/12 01:50:10;;;;;;;31.98;24.48;;;;;;;13.74;100.00;101137.53;5030318;28;20471;-63
2022/10/12 01:53:08;;;;;;;30.13;23.55;;;;;;;13.68;100.00;101140.78;5030890;28;20044;-64
2022/10/12 01:55:48;;;;;;;30.40;24.10;;;;;;;13.51;100.00;101134.16;5030449;28;20114;-63
2022/10/12 01:58:43;;;;;;;30.60;24.17;;;;;;;13.53;100.00;101142.97;5030463;28;20030;-63
2022/10/12 02:01:23;;;;;;;30.83;23.83;;;;;;;13.46;100.00;101149.00;5030668;28;20889;-64
2022/10/12 02:04:31;;;;;;;32.50;24.35;;;;;;;13.28;100.00;101120.94;5030871;28;20029;-64
2022/10/12 02:07:07;;;;;;;33.05;24.98;;;;;;;13.30;100.00;101137.84;5030262;28;20039;-64
2022/10/12 02:09:34;;;;;;;28.23;24.10;;;;;;;13.29;100.00;101158.53;5030879;28;20143;-64
2022/10/12 02:12:06;;;;;;;28.20;23.42;;;;;;;13.15;100.00;101140.03;5030410;28;20292;-63
2022/10/12 02:14:43;;;;;;;32.78;22.10;;;;;;;13.08;100.00;101132.59;5029129;28;20087;-63
2022/10/12 02:17:11;;;;;;;30.15;23.80;;;;;;;13.15;100.00;101160.69;5030633;28;20027;-63
2022/10/12 02:19:46;;;;;;;33.22;24.77;;;;;;;13.11;100.00;101160.13;5030457;28;20079;-63
2022/10/12 02:22:13;;;;;;;31.40;24.13;;;;;;;12.96;100.00;101137.16;5030425;28;20523;-74
2022/10/12 02:24:41;;;;;;;34.55;24.13;;;;;;;13.05;100.00;101154.38;5030189;28;20028;-74
2022/10/12 02:27:11;;;;;;;30.48;23.98;;;;;;;13.02;100.00;101154.66;5028754;28;20037;-74
2022/10/12 02:29:39;;;;;;;31.25;23.95;;;;;;;12.95;100.00;101148.03;5030484;28;20514;-74
2022/10/12 02:32:17;;;;;;;34.75;23.45;;;;;;;12.97;100.00;101154.16;5030023;28;20476;-74
2022/10/12 02:34:57;;;;;;;28.80;22.90;;;;;;;12.96;100.00;101161.38;5030342;28;20045;-74
2022/10/12 02:37:29;;;;;;;33.08;24.73;;;;;;;12.91;100.00;101160.06;5029097;28;20041;-74
2022/10/12 02:40:03;;;;;;;34.03;25.00;;;;;;;12.84;100.00;101156.19;5030310;28;20049;-73
2022/10/12 02:42:33;;;;;;;32.53;24.60;;;;;;;12.85;100.00;101163.25;5030340;28;20453;-74
2022/10/12 02:45:02;;;;;;;33.55;25.58;;;;;;;12.75;100.00;101152.44;5029800;28;20048;-73
2022/10/12 02:47:31;;;;;;;33.75;23.98;;;;;;;12.82;100.00;101167.06;5031400;28;20078;-74
2022/10/12 02:49:59;;;;;;;32.85;24.33;;;;;;;12.80;100.00;101166.34;5037039;28;20071;-74
2022/10/12 02:52:25;;;;;;;34.70;25.27;;;;;;;12.65;100.00;101146.09;5035733;28;20021;-74
2022/10/12 02:54:50;;;;;;;29.95;23.55;;;;;;;12.73;100.00;101164.28;5035780;28;20037;-74
2022/10/12 02:57:16;;;;;;;29.95;23.50;;;;;;;12.59;100.00;101140.34;5036493;28;20522;-74
2022/10/12 02:59:41;;;;;;;31.33;23.63;;;;;;;12.73;100.00;101169.66;5036638;28;20068;-74
2022/10/12 03:02:09;;;;;;;32.78;23.50;;;;;;;12.64;100.00;101154.31;5036337;28;20082;-74
2022/10/12 03:04:35;;;;;;;30.17;24.17;;;;;;;12.63;100.00;101152.56;5036473;28;20029;-74
2022/10/12 03:07:00;;;;;;;32.47;24.95;;;;;;;12.70;100.00;101169.91;5036471;28;20120;-74
2022/10/12 03:09:26;;;;;;;33.72;24.65;;;;;;;12.66;100.00;101161.25;5036951;28;20061;-74
2022/10/12 03:11:51;;;;;;;33.08;26.10;;;;;;;12.66;100.00;101152.31;5035221;28;20484;-73
2022/10/12 03:14:17;;;;;;;32.45;25.20;;;;;;;12.65;100.00;101154.19;5036488;28;20053;-74
2022/10/12 03:16:45;;;;;;;32.65;25.88;;;;;;;12.67;100.00;101159.44;5036384;28;20037;-74
2022/10/12 03:19:10;;;;;;;34.58;25.77;;;;;;;12.61;100.00;101147.31;5034984;28;20451;-74
2022/10/12 03:21:36;;;;;;;30.42;24.00;;;;;;;12.66;100.00;101160.41;5036221;28;20057;-74
2022/10/12 03:24:01;;;;;;;35.20;24.88;;;;;;;12.61;100.00;101154.56;5035518;28;20051;-74
2022/10/12 03:26:26;;;;;;;35.78;25.92;;;;;;;12.66;100.00;101155.88;5036341;28;20033;-74
2022/10/12 03:28:52;;;;;;;32.72;25.00;;;;;;;12.66;100.00;101158.56;5036925;28;20414;-73
2022/10/12 03:31:17;;;;;;;30.75;23.95;;;;;;;12.61;100.00;101154.56;5036021;28;20029;-74
2022/10/12 03:33:43;;;;;;;33.80;24.92;;;;;;;12.67;100.00;101164.81;5036284;28;20055;-74
2022/10/12 03:36:08;;;;;;;34.13;25.85;;;;;;;12.55;100.00;101147.84;5036021;28;20067;-73
2022/10/12 03:38:34;;;;;;;33.33;26.20;;;;;;;12.66;100.00;101157.69;5036393;28;20078;-74
2022/10/12 03:40:59;;;;;;;36.80;27.55;;;;;;;12.54;100.00;101132.66;5036215;28;20484;-74
2022/10/12 03:43:25;;;;;;;40.80;29.60;;;;;;;12.70;100.00;101153.75;5036357;28;20028;-74
2022/10/12 03:45:51;;;;;;;37.95;29.40;;;;;;;12.73;100.00;101158.91;5036282;28;20040;-74
2022/10/12 03:48:17;;;;;;;40.75;29.98;;;;;;;12.73;100.00;101156.19;5036639;28;20045;-74
2022/10/12 03:50:47;;;;;;;40.67;30.20;;;;;;;12.78;100.00;101162.94;5036167;28;20048;-74
2022/10/12 03:53:13;;;;;;;41.42;28.95;;;;;;;12.79;100.00;101161.94;5036413;28;20483;-74
2022/10/12 03:55:38;;;;;;;37.63;28.08;;;;;;;12.82;100.00;101172.47;5022710;28;20014;-74
2022/10/12 03:58:04;;;;;;;38.17;27.83;;;;;;;12.69;100.00;101147.53;5017640;28;20018;-74
2022/10/12 04:00:29;;;;;;;40.25;28.40;;;;;;;12.81;100.00;101175.28;5029046;28;20087;-74
2022/10/12 04:02:55;;;;;;;39.20;27.83;;;;;;;12.78;100.00;101171.00;5031859;28;20029;-74
2022/10/12 04:05:20;;;;;;;38.05;27.60;;;;;;;12.78;100.00;101168.31;5027125;28;20064;-74
2022/10/12 04:07:46;;;;;;;38.47;29.10;;;;;;;12.79;100.00;101169.16;5018646;28;20072;-74
2022/10/12 04:10:11;;;;;;;39.90;27.65;;;;;;;12.72;100.00;101159.88;5023586;28;20037;-74
2022/10/12 04:12:36;;;;;;;35.78;28.13;;;;;;;12.74;100.00;101161.47;5021320;28;20480;-74
2022/10/12 04:15:03;;;;;;;35.10;27.17;;;;;;;12.72;100.00;101166.13;5023105;28;20030;-74
2022/10/12 04:17:28;;;;;;;36.75;27.10;;;;;;;12.63;100.00;101152.56;5016890;28;20045;-74
2022/10/12 04:19:54;;;;;;;36.25;27.25;;;;;;;12.58;100.00;101144.88;5023647;28;20029;-74
2022/10/12 04:22:19;;;;;;;39.88;28.33;;;;;;;12.68;100.00;101170.06;5020142;28;20049;-74
2022/10/12 04:24:45;;;;;;;38.40;29.25;;;;;;;12.68;100.00;101164.69;5023409;28;20030;-74
2022/10/12 04:27:10;;;;;;;38.97;27.40;;;;;;;12.67;100.00;101167.50;5027475;28;20094;-74
2022/10/12 04:29:36;;;;;;;38.92;28.15;;;;;;;12.68;100.00;101163.81;5032459;28;20037;-74
2022/10/12 04:32:02;;;;;;;41.58;28.67;;;;;;;12.61;100.00;101155.38;5032190;28;20032;-74
2022/10/12 04:34:27;;;;;;;35.90;27.75;;;;;;;12.70;100.00;101168.09;5032244;28;20028;-74
2022/10/12 04:36:53;;;;;;;38.72;27.40;;;;;;;12.60;100.00;101147.44;5032534;28;20037;-74
2022/10/12 04:39:18;;;;;;;38.63;28.30;;;;;;;12.63;100.00;101161.50;5032486;28;20079;-74
2022/10/12 04:41:44;;;;;;;35.30;27.55;;;;;;;12.74;100.00;101171.41;5031107;28;20124;-74
2022/10/12 04:44:09;;;;;;;37.25;26.00;;;;;;;12.71;100.00;101169.78;5031897;28;20032;-74
2022/10/12 04:46:34;;;;;;;33.28;25.98;;;;;;;12.74;100.00;101174.09;5031907;28;20021;-74
2022/10/12 04:49:00;;;;;;;41.45;28.60;;;;;;;12.72;100.00;101174.22;5025740;28;20041;-74
2022/10/12 04:51:26;;;;;;;38.20;28.60;;;;;;;12.73;100.00;101181.28;5028575;28;20493;-74
2022/10/12 04:53:52;;;;;;;36.72;29.08;;;;;;;12.71;100.00;101187.78;5028218;28;20123;-74
2022/10/12 04:56:17;;;;;;;39.42;27.50;;;;;;;12.72;100.00;101184.13;5030548;28;20033;-74
2022/10/12 04:58:43;;;;;;;38.95;27.48;;;;;;;12.67;100.00;101184.50;5031691;28;20027;-74
2022/10/12 05:01:08;;;;;;;38.28;27.45;;;;;;;12.65;100.00;101181.09;5031896;28;20032;-74
2022/10/12 05:03:34;;;;;;;42.97;27.73;;;;;;;12.57;100.00;101174.59;5031263;28;20036;-74
2022/10/12 05:05:59;;;;;;;36.13;27.58;;;;;;;12.62;100.00;101192.13;5031410;28;20042;-74
2022/10/12 05:08:25;;;;;;;38.67;26.95;;;;;;;12.60;100.00;101188.69;5031910;28;20425;-74
2022/10/12 05:10:50;;;;;;;40.30;27.95;;;;;;;12.59;100.00;101181.59;5031532;28;20052;-74
2022/10/12 05:13:16;;;;;;;40.80;28.70;;;;;;;12.61;100.00;101189.53;5031481;28;20033;-74
2022/10/12 05:15:42;;;;;;;42.53;27.25;;;;;;;12.59;100.00;101184.28;5031513;28;20025;-74
2022/10/12 05:18:08;;;;;;;42.25;28.50;;;;;;;12.52;100.00;101172.31;5031649;28;20077;-74
2022/10/12 05:20:34;;;;;;;40.05;27.95;;;;;;;12.56;100.00;101184.53;5031495;28;20071;-74
2022/10/12 05:22:59;;;;;;;38.10;26.85;;;;;;;12.60;100.00;101194.06;5031192;28;20041;-74
2022/10/12 05:25:24;;;;;;;42.92;28.23;;;;;;;12.53;100.00;101187.47;5031471;28;20110;-74
2022/10/12 05:27:50;;;;;;;42.97;27.80;;;;;;;12.59;100.00;101191.50;5031327;28;20072;-74
2022/10/12 05:30:16;;;;;;;43.60;28.88;;;;;;;12.57;100.00;101185.38;5030178;28;20780;-74
2022/10/12 05:32:43;;;;;;;41.22;29.75;;;;;;;12.60;100.00;101188.69;5030897;28;20030;-74
2022/10/12 05:35:09;;;;;;;44.40;29.05;;;;;;;12.53;100.00;101174.03;5031277;28;20035;-74
2022/10/12 05:37:35;;;;;;;43.72;30.92;;;;;;;12.71;100.00;101193.19;5031435;28;20057;-74
2022/10/12 05:40:00;;;;;;;47.83;32.08;;;;;;;12.67;100.00;101179.09;5031128;28;20065;-74
2022/10/12 05:42:26;;;;;;;50.38;32.58;;;;;;;12.81;100.00;101194.13;5030952;28;20106;-74
2022/10/12 05:44:51;;;;;;;43.10;30.10;;;;;;;12.86;100.00;101192.75;5029167;28;20033;-74
2022/10/12 05:47:16;;;;;;;45.33;30.55;;;;;;;12.82;100.00;101183.22;5030508;28;20037;-74
2022/10/12 05:49:42;;;;;;;43.63;30.52;;;;;;;12.81;100.00;101178.84;5030904;28;20518;-74
2022/10/12 05:52:07;;;;;;;42.08;31.13;;;;;;;12.99;100.00;101192.59;5030994;28;20083;-74
2022/10/12 05:54:33;;;;;;;38.75;29.30;;;;;;;13.07;100.00;101207.16;5030764;28;20025;-73
2022/10/12 05:56:58;;;;;;;41.03;29.60;;;;;;;13.09;100.00;101196.25;5030883;28;20091;-74
2022/10/12 05:59:23;;;;;;;43.40;30.25;;;;;;;13.16;100.00;101202.84;5030678;28;20017;-74
2022/10/12 06:01:49;;;;;;;37.60;28.40;;;;;;;13.19;100.00;101211.50;5018392;28;20037;-73
2022/10/12 06:04:15;;;;;;;39.42;29.75;;;;;;;13.24;100.00;101211.97;5029609;28;20025;-74
2022/10/12 06:06:40;;;;;;;41.75;30.02;;;;;;;13.26;100.00;101212.69;5028592;28;20040;-74
2022/10/12 06:09:06;;;;;;;40.90;28.63;;;;;;;13.28;100.00;101201.78;5032191;28;20041;-74
2022/10/12 06:11:31;;;;;;;42.53;27.13;;;;;;;13.38;100.00;101210.78;5040477;28;20021;-74
2022/10/12 06:13:56;;;;;;;43.83;28.95;;;;;;;13.36;100.00;101205.56;5045350;28;20486;-74
2022/10/12 06:16:22;;;;;;;39.30;28.13;;;;;;;13.46;100.00;101214.56;5038416;28;20100;-74
2022/10/12 06:18:48;;;;;;;37.17;27.02;;;;;;;13.53;100.00;101217.56;5046217;28;20519;-74
2022/10/12 06:21:14;;;;;;;36.88;26.67;;;;;;;13.54;100.00;101220.13;5033269;28;20028;-74
2022/10/12 06:23:39;;;;;;;36.42;26.50;;;;;;;13.61;100.00;101217.78;5040824;28;20037;-74
2022/10/12 06:26:05;;;;;;;35.20;26.30;;;;;;;13.62;100.00;101217.66;5041524;28;20057;-74
2022/10/12 06:28:30;;;;;;;38.70;25.77;;;;;;;13.71;100.00;101229.47;5036444;28;20029;-74
2022/10/12 06:30:58;;;;;;;36.75;24.67;;;;;;;13.63;100.00;101210.41;5046122;28;20124;-74
2022/10/12 06:33:24;;;;;;;32.08;23.60;;;;;;;13.63;100.00;101208.56;5034383;28;20037;-74
2022/10/12 06:35:50;;;;;;;35.45;24.63;;;;;;;13.81;100.00;101227.69;5041609;28;20072;-74
2022/10/12 06:38:16;;;;;;;33.70;24.73;;;;;;;13.84;100.00;101238.22;5040198;28;20048;-74
2022/10/12 06:40:41;;;;;;;30.65;23.00;;;;;;;13.82;100.00;101242.88;5033314;28;20033;-74
2022/10/12 06:43:07;;;;;;;35.33;24.45;;;;;;;13.82;100.00;101245.56;5039348;28;20377;-74
2022/10/12 06:45:33;;;;;;;34.28;22.63;;;;;;;13.85;100.00;101236.34;5019384;28;20036;-74
2022/10/12 06:47:59;;;;;;;29.95;22.67;;;;;;;13.95;100.00;101248.03;5031066;28;20033;-74
2022/10/12 06:50:25;;;;;;;32.70;21.98;;;;;;;13.95;100.00;101248.03;5023489;28;20396;-74
2022/10/12 06:52:51;;;;;;;37.00;22.88;;;;;;;13.92;100.00;101242.91;5046318;28;20827;-74
2022/10/12 06:55:16;;;;;;;30.85;22.85;;;;;;;13.90;100.00;101243.06;5025437;28;20057;-74
2022/10/12 06:57:42;;;;;;;25.52;21.40;;;;;;;14.01;100.00;101261.00;5029929;28;20029;-74
2022/10/12 07:00:08;;;;;;;28.38;21.42;;;;;;;14.07;100.00;101266.72;5029483;28;20041;-74
2022/10/12 07:02:34;;;;;;;29.83;21.95;;;;;;;14.10;99.94;101261.06;5018300;28;20033;-74
2022/10/12 07:05:00;;;;;;;27.80;20.92;;;;;;;14.16;99.79;101267.75;5021709;28;20443;-74
2022/10/12 07:07:28;;;;;;;31.27;21.70;;;;;;;14.12;99.27;101259.06;5029599;28;20040;-74
2022/10/12 07:09:53;;;;;;;27.08;20.60;;;;;;;14.14;98.44;101254.41;5037433;28;20472;-74
2022/10/12 07:12:18;;;;;;;25.52;19.90;;;;;;;14.25;98.20;101269.69;5029806;28;20091;-74
2022/10/12 07:14:44;;;;;;;25.38;20.75;;;;;;;14.29;98.02;101272.00;5026150;28;20033;-74
2022/10/12 07:17:09;;;;;;;25.92;19.08;;;;;;;14.30;97.50;101270.13;5025331;28;20036;-74
2022/10/12 07:19:35;;;;;;;26.83;19.63;;;;;;;14.35;97.15;101270.59;5040769;28;20075;-74
2022/10/12 07:22:00;;;;;;;25.40;19.20;;;;;;;14.36;96.34;101262.34;5032381;28;20650;-74
2022/10/12 07:24:34;;;;;;;24.08;17.83;;;;;;;14.31;94.94;101256.50;5041463;28;20104;-74
2022/10/12 07:27:00;;;;;;;26.42;17.92;;;;;;;14.41;93.95;101273.59;5032376;28;20029;-74
2022/10/12 07:29:25;;;;;;;25.20;17.25;;;;;;;14.44;93.37;101270.63;5038097;28;20079;-74
2022/10/12 07:31:51;;;;;;;19.92;16.30;;;;;;;14.49;93.16;101262.13;5027449;28;20034;-74
2022/10/12 07:34:16;;;;;;;22.60;16.30;;;;;;;14.40;92.50;101244.91;5029598;28;20026;-74
2022/10/12 07:36:43;;;;;;;23.23;16.50;;;;;;;14.47;91.48;101256.84;5028543;28;20144;-74
2022/10/12 07:39:09;;;;;;;20.52;15.55;;;;;;;14.52;91.96;101260.00;5035677;28;20125;-74
2022/10/12 07:41:35;;;;;;;26.88;16.67;;;;;;;14.54;91.48;101254.47;5034319;28;20500;-74
2022/10/12 07:44:00;;;;;;;20.48;15.20;;;;;;;14.58;89.49;101253.19;5034374;28;20036;-73
2022/10/12 07:46:26;;;;;;;18.88;15.35;;;;;;;14.63;89.67;101267.13;5034362;28;20030;-74
2022/10/12 07:48:52;;;;;;;21.02;14.90;;;;;;;14.66;89.25;101273.13;5034161;28;20374;-73
2022/10/12 07:51:18;;;;;;;21.05;15.52;;;;;;;14.66;88.75;101265.00;5048693;28;20049;-74
2022/10/12 07:53:43;;;;;;;19.33;15.38;;;;;;;14.68;89.15;101263.03;5034326;28;20021;-73
2022/10/12 07:56:19;;;;;;;21.08;15.20;;;;;;;14.72;88.32;101261.78;5026620;28;20028;-74
2022/10/12 07:58:55;;;;;;;21.13;16.10;;;;;;;14.73;86.39;101271.56;5031112;28;20087;-74
2022/10/12 08:01:23;;;;;;;19.65;14.20;;;;;;;14.72;86.38;101252.81;5036814;28;20037;-74
2022/10/12 08:03:49;;;;;;;22.58;15.23;;;;;;;14.78;85.48;101263.06;5042661;28;20145;-64
2022/10/12 08:06:21;;;;;;;19.52;14.23;;;;;;;14.81;85.00;101260.94;5026749;28;20029;-64
2022/10/12 08:08:47;;;;;;;20.10;13.95;;;;;;;14.94;82.80;101264.25;5030992;28;20115;-64
2022/10/12 08:11:13;;;;;;;18.40;13.65;;;;;;;14.93;83.22;101267.09;5031353;28;20044;-64
2022/10/12 08:13:39;;;;;;;17.23;12.93;;;;;;;15.10;80.87;101271.78;5031420;28;20025;-64
2022/10/12 08:16:08;;;;;;;19.88;13.27;;;;;;;14.95;81.54;101247.03;5036343;28;20025;-64
2022/10/12 08:18:33;;;;;;;20.35;13.57;;;;;;;15.05;81.67;101257.84;5023998;28;20377;-64
2022/10/12 08:20:59;;;;;;;14.68;12.38;;;;;;;15.09;81.29;101264.69;5032588;28;20045;-64
2022/10/12 08:23:24;;;;;;;22.85;12.40;;;;;;;15.11;81.05;101262.69;5031709;28;20057;-64
2022/10/12 08:25:55;;;;;;;17.20;12.25;;;;;;;15.13;80.71;101272.34;5032530;28;20049;-64
2022/10/12 08:28:21;;;;;;;17.33;12.70;;;;;;;15.14;79.78;101265.97;5026619;28;20036;-64
2022/10/12 08:30:46;;;;;;;18.73;12.27;;;;;;;15.15;79.37;101267.66;5015051;28;20061;-65
2022/10/12 08:33:13;;;;;;;23.95;12.30;;;;;;;15.13;78.51;101260.72;5012045;28;20060;-64
2022/10/12 08:35:39;;;;;;;19.38;12.80;;;;;;;15.13;78.81;101252.59;5012293;28;20018;-64
2022/10/12 08:38:05;;;;;;;16.67;11.82;;;;;;;15.25;77.65;101270.41;5012210;28;20026;-64
2022/10/12 08:40:36;;;;;;;14.63;11.82;;;;;;;15.37;76.71;101258.47;5012374;28;20112;-64
2022/10/12 08:43:16;;;;;;;17.63;12.32;;;;;;;15.33;77.42;101257.88;5012181;28;20045;-64
2022/10/12 08:45:49;;;;;;;18.45;11.82;;;;;;;15.36;77.69;101252.22;5010179;28;20378;-64
2022/10/12 08:48:29;;;;;;;15.73;11.57;;;;;;;15.39;78.34;101251.06;5011654;28;20079;-64
2022/10/12 08:51:05;;;;;;;18.20;11.13;;;;;;;15.43;77.32;101253.34;5012024;28;20038;-64
2022/10/12 08:53:42;;;;;;;21.80;11.32;;;;;;;15.52;76.76;101257.91;5012073;28;20038;-64
2022/10/12 08:56:08;;;;;;;15.32;11.15;;;;;;;15.57;76.60;101258.31;5011913;28;20512;-64
2022/10/12 08:58:37;;;;;;;16.15;11.32;;;;;;;15.55;76.44;101243.25;5012024;28;20026;-64
2022/10/12 09:01:21;;;;;;;16.88;11.32;;;;;;;15.59;76.46;101241.94;5011495;28;20034;-64
2022/10/12 09:04:11;;;;;;;15.32;11.68;;;;;;;15.79;74.99;101254.44;5011508;28;20025;-64
2022/10/12 09:06:52;;;;;;;20.08;11.30;;;;;;;15.74;74.02;101238.63;5011685;28;20042;-64
2022/10/12 09:09:42;;;;;;;17.65;10.73;;;;;;;15.93;74.05;101252.13;5017916;28;20361;-64
2022/10/12 09:12:32;;;;;;;14.57;9.85;;;;;;;16.08;73.43;101249.81;5011462;28;20044;-64
2022/10/12 09:15:08;;;;;;;13.30;10.00;;;;;;;16.24;72.11;101241.06;5011497;28;20030;-64
2022/10/12 09:17:45;;;;;;;14.70;10.93;;;;;;;16.49;71.74;101253.97;5011372;28;20021;-64
2022/10/12 09:20:30;;;;;;;17.55;10.32;;;;;;;16.63;70.20;101246.19;5011510;28;20029;-64
2022/10/12 09:23:24;;;;;;;18.98;10.02;;;;;;;16.95;68.65;101251.13;5011395;28;20089;-64
2022/10/12 09:25:53;;;;;;;14.05;10.45;;;;;;;17.77;66.37;101249.91;5011275;28;20394;-64
2022/10/12 09:28:33;;;;;;;15.95;10.57;;;;;;;18.97;61.66;101241.53;5011110;28;20034;-64
2022/10/12 09:31:37;;;;;;;14.52;9.55;;;;;;;19.58;57.91;101242.00;5009495;28;20018;-64
2022/10/12 09:34:05;;;;;;;12.23;9.18;;;;;;;19.76;57.01;101240.81;5011528;28;20037;-64
2022/10/12 09:36:39;;;;;;;13.27;8.80;;;;;;;20.07;56.05;101240.94;5009957;28;20091;-64
2022/10/12 09:39:16;;;;;;;13.02;9.27;;;;;;;20.40;53.72;101238.97;5011377;28;20029;-64
2022/10/12 09:41:43;;;;;;;15.50;8.45;;;;;;;20.46;53.41;101230.97;5011154;28;20077;-64
2022/10/12 09:44:22;;;;;;;11.85;8.35;;;;;;;20.53;52.95;101228.41;5015089;28;20033;-64
2022/10/12 09:46:54;;;;;;;17.75;8.38;;;;;;;20.53;52.91;101237.41;5027194;28;20037;-64
2022/10/12 09:49:20;;;;;;;10.95;8.50;;;;;;;20.55;53.05;101237.25;5029543;28;20029;-64
2022/10/12 09:51:46;;;;;;;16.35;8.48;;;;;;;20.66;52.92;101234.16;5030204;28;20083;-64
2022/10/12 09:54:23;;;;;;;13.52;7.47;;;;;;;20.64;50.56;101228.00;5030216;28;20033;-64
2022/10/12 09:56:54;;;;;;;12.90;7.53;;;;;;;20.94;49.51;101230.78;5029787;28;20087;-64
2022/10/12 09:59:43;;;;;;;13.15;7.38;;;;;;;21.48;47.92;101201.56;5028817;28;20029;-64
2022/10/12 10:02:17;;;;;;;13.90;8.02;;;;;;;21.63;47.73;101229.75;5030471;28;20122;-64
2022/10/12 10:04:45;;;;;;;10.68;7.22;;;;;;;21.52;48.19;101228.31;5030485;28;20057;-64
2022/10/12 10:07:22;;;;;;;10.40;6.68;;;;;;;21.45;48.51;101231.97;5030419;28;20120;-64
2022/10/12 10:10:03;;;;;;;13.70;7.57;;;;;;;21.21;48.60;101213.88;5029143;28;20037;-64
2022/10/12 10:12:29;;;;;;;14.38;7.70;;;;;;;21.14;49.22;101217.50;5030420;28;20393;-65
2022/10/12 10:14:57;;;;;;;9.70;6.63;;;;;;;21.05;48.70;101230.34;5030312;28;20018;-64
2022/10/12 10:17:32;;;;;;;13.65;7.30;;;;;;;21.06;48.21;101226.63;5030180;28;20396;-64
2022/10/12 10:20:01;;;;;;;10.13;7.05;;;;;;;20.47;49.12;101218.22;5030303;28;20033;-64
2022/10/12 10:22:27;;;;;;;9.70;6.95;;;;;;;20.29;50.24;101234.78;5028730;28;20136;-64
2022/10/12 10:24:58;;;;;;;9.13;6.70;;;;;;;20.25;50.93;101232.59;5030322;28;20534;-64
2022/10/12 10:27:36;;;;;;;9.98;6.75;;;;;;;20.06;51.42;101225.63;5030096;28;20040;-64
2022/10/12 10:30:16;;;;;;;9.68;6.85;;;;;;;19.99;52.06;101230.03;5030389;28;20033;-64
2022/10/12 10:32:43;;;;;;;11.23;7.25;;;;;;;19.86;52.83;101229.72;5030320;28;20079;-64
2022/10/12 10:35:11;;;;;;;11.25;6.82;;;;;;;19.69;52.66;101223.47;5030000;28;20033;-63
2022/10/12 10:37:57;;;;;;;11.38;6.95;;;;;;;19.51;53.38;101225.50;5030108;28;20124;-64
2022/10/12 10:40:28;;;;;;;9.32;6.45;;;;;;;19.45;53.84;101220.72;5028675;28;20045;-64
2022/10/12 10:43:03;;;;;;;11.98;6.60;;;;;;;19.41;54.24;101229.41;5028861;28;20030;-63
2022/10/12 10:45:32;;;;;;;10.13;7.72;;;;;;;19.34;54.60;101221.06;5029900;28;20640;-64
2022/10/12 10:48:06;;;;;;;8.82;6.38;;;;;;;19.33;54.55;101218.50;5028649;28;20036;-64
2022/10/12 10:50:41;;;;;;;9.93;6.57;;;;;;;19.32;54.99;101214.09;5030119;28;20030;-65
2022/10/12 10:53:21;;;;;;;9.63;6.68;;;;;;;19.25;54.51;101215.78;5030051;28;20034;-64
2022/10/12 10:55:55;;;;;;;13.27;6.93;;;;;;;19.23;54.59;101218.66;5029931;28;20057;-64
2022/10/12 10:58:23;;;;;;;;;;;;;;;19.19;55.16;101208.28;5029069;28;20029;-64
2022/10/12 11:00:51;;;;;;;11.73;6.88;;;;;;;19.11;54.92;101206.41;5029875;28;20499;-63
2022/10/12 11:03:28;;;;;;;10.50;7.43;;;;;;;19.11;55.29;101192.78;5029853;28;20025;-64
2022/10/12 11:06:21;;;;;;;12.90;6.85;;;;;;;19.20;55.92;101207.25;5029551;28;20069;-65
2022/10/12 11:08:51;;;;;;;10.63;7.10;;;;;;;19.21;56.02;101201.63;5026285;28;20048;-64
2022/10/12 11:11:25;;;;;;;14.70;7.60;;;;;;;19.17;54.70;101207.59;5033878;28;20040;-64
2022/10/12 11:14:17;;;;;;;9.63;6.68;;;;;;;19.21;54.88;101212.53;5032677;28;20022;-64
2022/10/12 11:16:51;;;;;;;10.98;6.85;;;;;;;19.27;54.43;101205.59;5033720;28;20091;-64
2022/10/12 11:19:48;;;;;;;12.52;6.60;;;;;;;19.32;54.58;101200.50;5033650;28;20480;-64